Time;durP1;ratioP1;P1;durP2;ratioP2;P2;SDS_P1;SDS_P2;PMS_P1;PMS_P2;Temp;Humidity;BMP_temperature;BMP_pressure;BME280_temperature;BME280_humidity;BME280_pressure;Samples;Min_cycle;Max_cycle;Signal;HPM_P1;HPM_P2
2021/10/20 00:01:41;;;;;;;26.35;3.83;;;15.10;89.20;;;;;;4957884;29;20050;-77
2021/10/20 00:04:09;;;;;;;18.20;3.60;;;15.10;89.20;;;;;;4955883;29;20401;-76
2021/10/20 00:06:37;;;;;;;19.20;3.10;;;15.10;89.20;;;;;;4957609;29;20055;-76
2021/10/20 00:09:05;;;;;;;14.07;3.00;;;15.10;89.20;;;;;;4957801;29;20397;-76
2021/10/20 00:16:07;;;;;;;21.40;3.50;;;15.00;89.20;;;;;;4957397;28;20058;-76
2021/10/20 00:18:35;;;;;;;13.27;3.10;;;15.00;89.10;;;;;;4940375;29;20476;-76
2021/10/20 00:21:05;;;;;;;17.83;3.53;;;14.90;89.10;;;;;;4956936;29;20496;-76
2021/10/20 00:23:33;;;;;;;24.67;3.65;;;14.90;89.10;;;;;;4956372;29;20047;-76
2021/10/20 00:26:01;;;;;;;19.73;3.40;;;14.90;89.20;;;;;;4957211;29;20047;-76
2021/10/20 00:28:28;;;;;;;20.63;3.22;;;14.90;89.20;;;;;;4957554;29;20047;-76
2021/10/20 00:30:56;;;;;;;16.85;3.33;;;14.90;89.20;;;;;;4956393;29;20051;-76
2021/10/20 00:33:24;;;;;;;19.17;3.40;;;14.90;89.10;;;;;;4957476;29;20043;-76
2021/10/20 00:35:52;;;;;;;26.48;3.40;;;14.90;89.10;;;;;;4957625;29;20507;-76
2021/10/20 00:38:19;;;;;;;17.65;3.25;;;14.90;89.10;;;;;;4939851;29;20400;-76
2021/10/20 00:40:49;;;;;;;15.70;2.83;;;14.90;89.00;;;;;;4957159;29;20056;-76
2021/10/20 00:43:22;;;;;;;20.85;3.25;;;14.90;89.10;;;;;;4956347;29;20074;-75
2021/10/20 00:45:51;;;;;;;21.48;3.35;;;14.80;89.10;;;;;;4957633;29;20058;-75
2021/10/20 00:48:19;;;;;;;19.63;3.72;;;14.80;89.20;;;;;;4957998;29;20073;-76
2021/10/20 00:50:47;;;;;;;22.60;3.63;;;14.80;89.20;;;;;;4957042;29;20070;-76
2021/10/20 00:53:14;;;;;;;23.25;3.70;;;14.80;89.30;;;;;;4956458;29;20504;-76
2021/10/20 00:55:43;;;;;;;20.48;3.38;;;14.80;89.30;;;;;;4956865;29;20413;-76
2021/10/20 00:58:11;;;;;;;24.13;3.13;;;14.80;89.40;;;;;;4956785;29;20058;-76
2021/10/20 01:00:38;;;;;;;20.90;3.63;;;14.70;89.50;;;;;;4939728;29;20062;-76
2021/10/20 01:03:06;;;;;;;19.13;3.40;;;14.70;89.50;;;;;;4954950;28;20485;-76
2021/10/20 01:05:34;;;;;;;28.08;4.25;;;14.60;89.60;;;;;;4956028;28;20062;-75
2021/10/20 01:08:02;;;;;;;25.15;3.55;;;14.60;89.70;;;;;;4956579;29;20054;-76
2021/10/20 01:10:29;;;;;;;18.48;3.58;;;14.60;89.80;;;;;;4939222;29;20051;-76
2021/10/20 01:12:57;;;;;;;25.35;3.88;;;14.50;89.80;;;;;;4956070;29;20493;-76
2021/10/20 01:15:27;;;;;;;17.80;3.08;;;14.50;89.90;;;;;;4956292;29;20054;-75
2021/10/20 01:17:55;;;;;;;25.30;3.80;;;14.40;90.00;;;;;;4957163;29;20043;-76
2021/10/20 01:20:26;;;;;;;27.00;3.85;;;14.40;90.10;;;;;;4956553;29;20043;-75
2021/10/20 01:22:54;;;;;;;19.85;2.95;;;14.30;90.30;;;;;;4956859;29;20055;-76
2021/10/20 01:25:21;;;;;;;18.65;3.67;;;14.30;90.30;;;;;;4957074;29;20051;-76
2021/10/20 01:27:49;;;;;;;29.75;4.03;;;14.30;90.40;;;;;;4956927;29;20055;-76
2021/10/20 01:30:17;;;;;;;20.60;3.80;;;14.30;90.40;;;;;;4973608;28;20062;-76
2021/10/20 01:37:17;;;;;;;23.45;3.72;;;14.30;90.30;;;;;;4938775;29;20035;-76
2021/10/20 01:39:44;;;;;;;27.35;3.42;;;14.30;90.30;;;;;;4956013;29;20488;-76
2021/10/20 01:42:12;;;;;;;27.92;3.70;;;14.30;90.30;;;;;;4956708;29;20055;-76
2021/10/20 01:44:39;;;;;;;25.33;4.30;;;14.30;90.40;;;;;;4956404;29;20476;-75
2021/10/20 01:47:07;;;;;;;26.25;3.72;;;14.30;90.40;;;;;;4956352;29;20050;-75
2021/10/20 01:49:37;;;;;;;24.55;4.07;;;14.30;90.40;;;;;;4956402;29;20058;-76
2021/10/20 01:52:05;;;;;;;22.20;3.63;;;14.30;90.50;;;;;;4955956;29;20043;-76
2021/10/20 01:54:33;;;;;;;26.38;3.60;;;14.30;90.50;;;;;;4955138;29;20473;-75
2021/10/20 01:57:01;;;;;;;22.20;3.40;;;14.30;90.60;;;;;;4955567;29;20055;-76
2021/10/20 01:59:28;;;;;;;21.98;3.38;;;14.30;90.50;;;;;;4938674;29;20055;-76
2021/10/20 02:01:56;;;;;;;23.25;3.95;;;14.30;90.50;;;;;;4955665;29;20039;-76
2021/10/20 02:04:28;;;;;;;24.33;3.50;;;14.30;90.30;;;;;;4956051;29;20047;-76
2021/10/20 02:06:56;;;;;;;28.80;3.95;;;14.30;90.00;;;;;;4939000;29;20066;-76
2021/10/20 02:09:23;;;;;;;20.65;3.50;;;14.30;90.00;;;;;;4969770;28;20062;-76
2021/10/20 02:11:51;;;;;;;15.85;2.80;;;14.30;89.90;;;;;;4955581;29;20074;-76
2021/10/20 02:14:18;;;;;;;21.92;3.00;;;14.30;89.70;;;;;;4938036;29;20047;-77
2021/10/20 02:21:19;;;;;;;24.67;3.80;;;14.30;89.40;;;;;;4955323;29;20397;-75
2021/10/20 02:23:47;;;;;;;26.25;3.83;;;14.30;89.10;;;;;;4955510;29;20051;-75
2021/10/20 02:26:15;;;;;;;23.55;4.00;;;14.30;89.20;;;;;;4955921;29;20052;-75
2021/10/20 02:28:42;;;;;;;22.00;3.00;;;14.30;89.30;;;;;;4955906;29;20055;-76
2021/10/20 02:35:45;;;;;;;23.55;3.45;;;14.20;89.50;;;;;;4937725;29;20043;-76
2021/10/20 02:38:13;;;;;;;19.75;3.58;;;14.20;89.50;;;;;;4922683;29;20047;-76
2021/10/20 02:40:40;;;;;;;24.13;3.75;;;14.10;89.60;;;;;;4954993;29;20043;-75
2021/10/20 02:43:08;;;;;;;18.02;3.65;;;14.10;89.60;;;;;;4937880;29;20051;-76
2021/10/20 02:45:36;;;;;;;20.85;3.40;;;14.10;89.60;;;;;;4954476;29;20059;-76
2021/10/20 02:48:04;;;;;;;25.55;4.10;;;14.10;89.50;;;;;;4939116;28;20055;-75
2021/10/20 02:50:32;;;;;;;24.75;3.78;;;14.10;89.40;;;;;;4955381;29;20055;-76
2021/10/20 02:52:59;;;;;;;21.33;3.30;;;14.00;89.40;;;;;;4955245;29;20047;-75
2021/10/20 02:55:27;;;;;;;19.17;2.60;;;14.00;89.50;;;;;;4938147;29;20501;-75
2021/10/20 02:57:57;;;;;;;28.33;3.80;;;14.00;89.40;;;;;;4937734;29;20047;-76
2021/10/20 03:00:24;;;;;;;20.65;3.35;;;13.90;89.50;;;;;;4954911;29;20051;-75
2021/10/20 03:02:52;;;;;;;22.25;3.45;;;13.90;89.60;;;;;;4969897;28;20050;-75
2021/10/20 03:05:20;;;;;;;22.88;3.55;;;13.80;89.70;;;;;;4955143;29;20051;-75
2021/10/20 03:07:49;;;;;;;17.67;3.25;;;13.80;89.70;;;;;;4954717;29;20055;-76
2021/10/20 03:14:50;;;;;;;29.38;3.50;;;13.80;89.90;;;;;;4954895;29;20349;-75
2021/10/20 03:17:17;;;;;;;22.00;3.28;;;13.70;90.10;;;;;;4922531;29;20051;-75
2021/10/20 03:19:45;;;;;;;24.33;3.53;;;13.60;90.20;;;;;;4954611;29;20412;-76
2021/10/20 03:22:12;;;;;;;27.65;3.65;;;13.60;90.30;;;;;;4954507;29;20069;-75
2021/10/20 03:29:15;;;;;;;21.92;3.33;;;13.50;90.40;;;;;;4955736;28;20046;-75
2021/10/20 03:31:42;;;;;;;22.48;3.53;;;13.50;90.40;;;;;;4958371;29;20416;-75
2021/10/20 03:34:10;;;;;;;26.38;3.70;;;13.40;90.50;;;;;;4958677;29;20050;-75
2021/10/20 03:36:38;;;;;;;31.05;4.28;;;13.30;90.60;;;;;;4973427;28;20054;-75
2021/10/20 03:39:06;;;;;;;30.40;3.67;;;13.30;90.70;;;;;;4941576;29;20043;-75
2021/10/20 03:41:33;;;;;;;20.80;3.20;;;13.30;90.80;;;;;;4941148;29;20496;-75
2021/10/20 03:44:01;;;;;;;23.10;3.10;;;13.20;91.00;;;;;;4957554;29;20408;-75
2021/10/20 03:46:29;;;;;;;22.90;3.33;;;13.20;91.00;;;;;;4940954;29;20501;-76
2021/10/20 03:48:56;;;;;;;25.25;3.85;;;13.10;91.10;;;;;;4941642;29;20058;-75
2021/10/20 03:51:24;;;;;;;31.50;3.78;;;13.10;91.20;;;;;;4925663;29;20503;-75
2021/10/20 03:53:51;;;;;;;24.20;3.42;;;13.00;91.30;;;;;;4957364;29;20493;-75
2021/10/20 03:56:19;;;;;;;31.52;3.67;;;13.00;91.40;;;;;;4940599;29;20055;-75
2021/10/20 04:03:22;;;;;;;25.45;3.78;;;13.00;91.50;;;;;;4957768;28;20039;-75
2021/10/20 04:05:50;;;;;;;28.85;3.45;;;12.90;91.50;;;;;;4957741;29;20058;-75
2021/10/20 04:08:18;;;;;;;25.80;3.80;;;12.90;91.60;;;;;;4957997;29;20401;-75
2021/10/20 04:10:45;;;;;;;26.92;4.03;;;12.90;91.60;;;;;;4957704;29;20529;-75
2021/10/20 04:13:13;;;;;;;29.58;4.53;;;13.00;91.60;;;;;;4960578;29;20059;-75
2021/10/20 04:15:40;;;;;;;32.30;4.47;;;13.00;91.70;;;;;;4957788;29;20062;-75
2021/10/20 04:18:08;;;;;;;33.55;4.35;;;12.90;91.70;;;;;;4940765;29;20054;-75
2021/10/20 04:20:36;;;;;;;26.42;4.13;;;13.00;91.70;;;;;;4957512;29;20054;-75
2021/10/20 04:23:03;;;;;;;30.25;4.82;;;12.90;91.80;;;;;;4958172;29;20063;-75
2021/10/20 04:25:31;;;;;;;25.80;4.38;;;12.90;91.90;;;;;;4957479;29;20039;-75
2021/10/20 04:27:58;;;;;;;37.40;4.68;;;12.80;92.00;;;;;;4958129;29;20127;-75
2021/10/20 04:30:26;;;;;;;27.95;4.15;;;12.80;92.00;;;;;;4940902;29;20481;-75
2021/10/20 04:32:54;;;;;;;26.15;4.05;;;12.80;92.10;;;;;;4957943;29;20066;-75
2021/10/20 04:35:23;;;;;;;23.45;4.03;;;12.80;92.10;;;;;;4957174;29;20047;-75
2021/10/20 04:37:51;;;;;;;27.40;4.00;;;12.80;92.00;;;;;;4957518;29;20047;-75
2021/10/20 04:40:19;;;;;;;31.35;4.72;;;12.80;92.00;;;;;;4971532;28;20043;-75
2021/10/20 04:42:46;;;;;;;33.72;5.13;;;12.80;92.00;;;;;;4957876;29;20051;-75
2021/10/20 04:45:14;;;;;;;36.80;4.45;;;12.80;92.00;;;;;;4957059;29;20054;-75
2021/10/20 04:47:41;;;;;;;25.55;3.85;;;12.80;91.80;;;;;;4940729;29;20047;-75
2021/10/20 04:50:10;;;;;;;25.35;4.95;;;12.70;91.80;;;;;;4957027;29;20047;-75
2021/10/20 04:52:37;;;;;;;27.00;3.75;;;12.70;91.70;;;;;;4956999;29;20058;-74
2021/10/20 04:55:07;;;;;;;32.15;4.30;;;12.60;91.70;;;;;;4957533;29;20043;-74
2021/10/20 04:57:34;;;;;;;29.38;3.83;;;12.60;91.80;;;;;;4956917;29;20058;-75
2021/10/20 05:00:05;;;;;;;30.85;3.97;;;12.40;91.90;;;;;;4956023;29;20054;-75
2021/10/20 05:02:36;;;;;;;33.80;4.68;;;12.40;92.00;;;;;;4946882;28;20047;-74
2021/10/20 05:05:06;;;;;;;22.02;3.80;;;12.30;92.10;;;;;;4957599;29;20078;-74
2021/10/20 05:07:47;;;;;;;33.40;4.78;;;12.30;92.30;;;;;;4940131;29;20062;-75
2021/10/20 05:10:14;;;;;;;31.23;4.38;;;12.20;92.50;;;;;;4957082;29;20066;-75
2021/10/20 05:12:42;;;;;;;36.13;3.70;;;12.30;92.50;;;;;;4956313;29;20055;-75
2021/10/20 05:15:12;;;;;;;31.38;4.10;;;12.30;92.50;;;;;;4940109;29;20408;-75
2021/10/20 05:17:40;;;;;;;24.02;3.58;;;12.30;92.40;;;;;;4956169;29;20050;-74
2021/10/20 05:20:09;;;;;;;32.95;4.40;;;12.30;92.40;;;;;;4955310;29;20050;-74
2021/10/20 05:22:38;;;;;;;27.02;4.03;;;12.30;92.40;;;;;;4956093;29;20047;-75
2021/10/20 05:25:07;;;;;;;26.17;3.90;;;12.30;92.20;;;;;;4954894;29;20051;-74
2021/10/20 05:27:35;;;;;;;33.83;4.20;;;12.30;92.10;;;;;;4954531;29;20396;-75
2021/10/20 05:30:04;;;;;;;28.42;4.68;;;12.30;92.10;;;;;;4939144;29;20047;-75
2021/10/20 05:32:32;;;;;;;27.08;4.45;;;12.20;92.10;;;;;;4939034;29;20056;-75
2021/10/20 05:34:59;;;;;;;34.17;4.00;;;12.20;92.20;;;;;;4954605;29;20058;-74
2021/10/20 05:37:27;;;;;;;28.45;3.50;;;12.20;92.30;;;;;;4956654;29;20058;-74
2021/10/20 05:39:55;;;;;;;29.67;3.63;;;12.20;92.30;;;;;;4956536;29;20043;-74
2021/10/20 05:42:22;;;;;;;36.67;4.05;;;12.10;92.30;;;;;;4954692;29;20508;-74
2021/10/20 05:44:50;;;;;;;35.08;3.88;;;12.10;92.30;;;;;;4956319;29;20066;-74
2021/10/20 05:47:19;;;;;;;34.38;4.10;;;12.10;92.40;;;;;;4955805;29;20054;-74
2021/10/20 05:49:47;;;;;;;36.45;4.22;;;12.10;92.40;;;;;;4971145;28;20047;-74
2021/10/20 05:52:14;;;;;;;34.67;5.18;;;12.10;92.40;;;;;;4969966;28;20051;-74
2021/10/20 05:54:42;;;;;;;23.75;3.53;;;12.00;92.40;;;;;;4970184;28;20051;-74
2021/10/20 05:57:10;;;;;;;23.02;3.20;;;12.10;92.40;;;;;;4955011;28;20055;-74
2021/10/20 05:59:37;;;;;;;20.02;3.20;;;12.20;92.30;;;;;;4956164;29;20047;-74
2021/10/20 06:02:06;;;;;;;24.65;3.25;;;12.20;92.10;;;;;;4956690;29;20054;-75
2021/10/20 06:04:34;;;;;;;28.73;3.00;;;12.30;92.00;;;;;;4955878;29;20070;-74
2021/10/20 06:07:02;;;;;;;24.25;3.33;;;12.30;91.80;;;;;;4956018;29;20384;-74
2021/10/20 06:09:30;;;;;;;22.00;3.03;;;12.30;91.60;;;;;;4955963;28;20047;-74
2021/10/20 06:11:58;;;;;;;28.02;3.47;;;12.30;91.40;;;;;;4940729;29;20062;-74
2021/10/20 06:14:25;;;;;;;23.02;3.53;;;12.40;91.40;;;;;;4956364;28;20381;-74
2021/10/20 06:16:53;;;;;;;22.80;3.28;;;12.30;91.40;;;;;;4955763;28;20497;-74
2021/10/20 06:19:21;;;;;;;30.15;3.47;;;12.30;91.40;;;;;;4939001;29;20062;-73
2021/10/20 06:21:49;;;;;;;25.88;3.45;;;12.20;91.50;;;;;;4955741;29;20059;-73
2021/10/20 06:24:17;;;;;;;29.85;3.47;;;12.20;91.60;;;;;;4922780;29;20047;-74
2021/10/20 06:26:44;;;;;;;24.20;3.85;;;12.20;91.80;;;;;;4955645;29;20074;-74
2021/10/20 06:29:12;;;;;;;32.03;4.13;;;12.10;91.90;;;;;;4938062;29;20047;-74
2021/10/20 06:31:42;;;;;;;21.52;3.78;;;12.10;91.90;;;;;;4954868;29;20066;-75
2021/10/20 06:34:09;;;;;;;26.08;3.63;;;12.00;92.00;;;;;;4969702;28;20070;-76
2021/10/20 06:36:40;;;;;;;25.58;3.83;;;12.00;92.10;;;;;;4954369;29;20042;-75
2021/10/20 06:39:08;;;;;;;24.23;3.60;;;12.00;92.20;;;;;;4955787;29;20078;-75
2021/10/20 06:41:36;;;;;;;27.75;4.10;;;11.90;92.30;;;;;;4922726;29;20067;-75
2021/10/20 06:44:04;;;;;;;25.83;3.78;;;12.00;92.40;;;;;;4922083;29;20062;-75
2021/10/20 06:46:31;;;;;;;31.45;4.30;;;12.00;92.40;;;;;;4954173;29;20082;-75
2021/10/20 06:49:00;;;;;;;27.15;3.90;;;12.00;92.60;;;;;;4954936;29;20043;-75
2021/10/20 06:51:27;;;;;;;23.90;4.25;;;12.10;92.60;;;;;;4954954;29;20055;-75
2021/10/20 06:53:55;;;;;;;29.20;4.70;;;12.20;92.50;;;;;;4953983;29;20051;-75
2021/10/20 06:56:25;;;;;;;24.45;4.07;;;12.20;92.40;;;;;;4937561;29;20058;-74
2021/10/20 06:58:52;;;;;;;24.98;4.30;;;12.30;92.30;;;;;;4954412;29;20389;-74
2021/10/20 07:01:20;;;;;;;24.38;4.13;;;12.30;92.30;;;;;;4954799;29;20043;-74
2021/10/20 07:03:48;;;;;;;23.83;4.40;;;12.30;92.20;;;;;;4955314;29;20058;-75
2021/10/20 07:06:15;;;;;;;25.85;3.63;;;12.30;92.20;;;;;;4954784;29;20051;-75
2021/10/20 07:08:43;;;;;;;29.17;4.32;;;12.30;92.20;;;;;;4955791;28;20047;-76
2021/10/20 07:11:12;;;;;;;30.73;4.30;;;12.30;92.20;;;;;;4955556;29;20047;-75
2021/10/20 07:13:50;;;;;;;24.40;3.92;;;12.30;92.10;;;;;;4954885;29;20054;-75
2021/10/20 07:16:34;;;;;;;28.40;3.67;;;12.30;92.10;;;;;;4948704;29;20401;-75
2021/10/20 07:19:06;;;;;;;28.02;3.83;;;12.30;92.00;;;;;;4954606;28;20058;-74
